sensor_id;sensor_type;location;lat;lon;timestamp;temperature;humidity
7331;DHT22;3706;49.198;7.064;2022-09-12T00:01:15;9.90;99.90
7331;DHT22;3706;49.198;7.064;2022-09-12T00:03:44;10.00;99.90
7331;DHT22;3706;49.198;7.064;2022-09-12T00:06:16;9.90;99.90
7331;DHT22;3706;49.198;7.064;2022-09-12T00:08:43;9.90;99.90
7331;DHT22;3706;49.198;7.064;2022-09-12T00:11:11;9.90;99.90
7331;DHT22;3706;49.198;7.064;2022-09-12T00:13:40;9.90;99.90
7331;DHT22;3706;49.198;7.064;2022-09-12T00:16:13;9.90;99.90
7331;DHT22;3706;49.198;7.064;2022-09-12T00:18:41;9.80;99.90
7331;DHT22;3706;49.198;7.064;2022-09-12T00:21:08;9.80;99.90
7331;DHT22;3706;49.198;7.064;2022-09-12T00:23:37;9.70;99.90
7331;DHT22;3706;49.198;7.064;2022-09-12T00:26:04;9.70;99.90
7331;DHT22;3706;49.198;7.064;2022-09-12T00:28:33;9.70;99.90
7331;DHT22;3706;49.198;7.064;2022-09-12T00:31:03;9.80;99.90
7331;DHT22;3706;49.198;7.064;2022-09-12T00:33:30;9.80;99.90
7331;DHT22;3706;49.198;7.064;2022-09-12T00:35:57;9.80;99.90
7331;DHT22;3706;49.198;7.064;2022-09-12T00:38:24;9.70;99.90
7331;DHT22;3706;49.198;7.064;2022-09-12T00:40:52;9.60;99.90
7331;DHT22;3706;49.198;7.064;2022-09-12T00:43:34;9.60;99.90
7331;DHT22;3706;49.198;7.064;2022-09-12T00:46:05;9.50;99.90
7331;DHT22;3706;49.198;7.064;2022-09-12T00:48:36;9.50;99.90
7331;DHT22;3706;49.198;7.064;2022-09-12T00:51:05;9.40;99.90
7331;DHT22;3706;49.198;7.064;2022-09-12T00:53:32;9.40;99.90
7331;DHT22;3706;49.198;7.064;2022-09-12T00:56:01;9.40;99.90
7331;DHT22;3706;49.198;7.064;2022-09-12T00:58:30;9.30;99.90
7331;DHT22;3706;49.198;7.064;2022-09-12T01:01:01;9.30;99.90
7331;DHT22;3706;49.198;7.064;2022-09-12T01:03:28;9.50;99.90
7331;DHT22;3706;49.198;7.064;2022-09-12T01:06:00;9.60;99.90
7331;DHT22;3706;49.198;7.064;2022-09-12T01:08:29;9.60;99.90
7331;DHT22;3706;49.198;7.064;2022-09-12T01:10:56;9.60;99.90
7331;DHT22;3706;49.198;7.064;2022-09-12T01:13:25;9.50;99.90
7331;DHT22;3706;49.198;7.064;2022-09-12T01:15:52;9.40;99.90
7331;DHT22;3706;49.198;7.064;2022-09-12T01:18:26;9.40;99.90
7331;DHT22;3706;49.198;7.064;2022-09-12T01:21:05;9.40;99.90
7331;DHT22;3706;49.198;7.064;2022-09-12T01:32:57;9.30;99.90
7331;DHT22;3706;49.198;7.064;2022-09-12T01:35:30;9.30;99.90
7331;DHT22;3706;49.198;7.064;2022-09-12T01:38:06;9.30;99.90
7331;DHT22;3706;49.198;7.064;2022-09-12T01:40:41;9.20;99.90
7331;DHT22;3706;49.198;7.064;2022-09-12T01:43:16;9.30;99.90
7331;DHT22;3706;49.198;7.064;2022-09-12T01:45:46;9.30;99.90
7331;DHT22;3706;49.198;7.064;2022-09-12T01:48:19;9.20;99.90
7331;DHT22;3706;49.198;7.064;2022-09-12T01:50:51;9.30;99.90
7331;DHT22;3706;49.198;7.064;2022-09-12T01:53:22;9.20;99.90
7331;DHT22;3706;49.198;7.064;2022-09-12T01:55:54;9.10;99.90
7331;DHT22;3706;49.198;7.064;2022-09-12T01:58:25;9.10;99.90
7331;DHT22;3706;49.198;7.064;2022-09-12T02:00:59;9.10;99.90
7331;DHT22;3706;49.198;7.064;2022-09-12T02:03:31;9.10;99.90
7331;DHT22;3706;49.198;7.064;2022-09-12T02:06:02;9.00;99.90
7331;DHT22;3706;49.198;7.064;2022-09-12T02:08:33;9.00;99.90
7331;DHT22;3706;49.198;7.064;2022-09-12T02:11:06;9.00;99.90
7331;DHT22;3706;49.198;7.064;2022-09-12T02:13:38;9.00;99.90
7331;DHT22;3706;49.198;7.064;2022-09-12T02:16:09;9.00;99.90
7331;DHT22;3706;49.198;7.064;2022-09-12T02:18:39;9.10;99.90
7331;DHT22;3706;49.198;7.064;2022-09-12T02:21:09;9.30;99.90
7331;DHT22;3706;49.198;7.064;2022-09-12T02:23:40;9.30;99.90
7331;DHT22;3706;49.198;7.064;2022-09-12T02:26:12;9.10;99.90
7331;DHT22;3706;49.198;7.064;2022-09-12T02:28:42;9.10;99.90
7331;DHT22;3706;49.198;7.064;2022-09-12T02:31:15;9.10;99.90
7331;DHT22;3706;49.198;7.064;2022-09-12T02:33:50;9.20;99.90
7331;DHT22;3706;49.198;7.064;2022-09-12T02:36:31;9.20;99.90
7331;DHT22;3706;49.198;7.064;2022-09-12T02:39:00;9.20;99.90
7331;DHT22;3706;49.198;7.064;2022-09-12T02:41:27;9.10;99.90
7331;DHT22;3706;49.198;7.064;2022-09-12T02:43:54;9.00;99.90
7331;DHT22;3706;49.198;7.064;2022-09-12T02:46:25;9.00;99.90
7331;DHT22;3706;49.198;7.064;2022-09-12T02:48:54;8.90;99.90
7331;DHT22;3706;49.198;7.064;2022-09-12T02:51:22;8.80;99.90
7331;DHT22;3706;49.198;7.064;2022-09-12T02:53:50;8.80;99.90
7331;DHT22;3706;49.198;7.064;2022-09-12T02:56:20;8.90;99.90
7331;DHT22;3706;49.198;7.064;2022-09-12T02:58:49;9.00;99.90
7331;DHT22;3706;49.198;7.064;2022-09-12T03:01:28;9.00;99.90
7331;DHT22;3706;49.198;7.064;2022-09-12T03:04:08;8.90;99.90
7331;DHT22;3706;49.198;7.064;2022-09-12T03:06:47;8.80;99.90
7331;DHT22;3706;49.198;7.064;2022-09-12T03:09:19;8.80;99.90
7331;DHT22;3706;49.198;7.064;2022-09-12T03:12:01;8.70;99.90
7331;DHT22;3706;49.198;7.064;2022-09-12T03:14:48;8.70;99.90
7331;DHT22;3706;49.198;7.064;2022-09-12T03:17:23;8.80;99.90
7331;DHT22;3706;49.198;7.064;2022-09-12T03:19:59;8.80;99.90
7331;DHT22;3706;49.198;7.064;2022-09-12T03:22:31;8.80;99.90
7331;DHT22;3706;49.198;7.064;2022-09-12T03:25:05;8.70;99.90
7331;DHT22;3706;49.198;7.064;2022-09-12T03:27:39;8.60;99.90
7331;DHT22;3706;49.198;7.064;2022-09-12T03:30:09;8.60;99.90
7331;DHT22;3706;49.198;7.064;2022-09-12T03:32:44;8.80;99.90
7331;DHT22;3706;49.198;7.064;2022-09-12T03:35:14;9.00;99.90
7331;DHT22;3706;49.198;7.064;2022-09-12T03:37:41;8.90;99.90
7331;DHT22;3706;49.198;7.064;2022-09-12T03:40:09;8.90;99.90
7331;DHT22;3706;49.198;7.064;2022-09-12T03:42:37;8.70;99.90
7331;DHT22;3706;49.198;7.064;2022-09-12T03:45:04;8.50;99.90
7331;DHT22;3706;49.198;7.064;2022-09-12T03:47:31;8.50;99.90
7331;DHT22;3706;49.198;7.064;2022-09-12T03:49:58;8.40;99.90
7331;DHT22;3706;49.198;7.064;2022-09-12T03:52:27;8.40;99.90
7331;DHT22;3706;49.198;7.064;2022-09-12T03:54:54;8.40;99.90
7331;DHT22;3706;49.198;7.064;2022-09-12T03:57:20;8.40;99.90
7331;DHT22;3706;49.198;7.064;2022-09-12T03:59:47;8.30;99.90
7331;DHT22;3706;49.198;7.064;2022-09-12T04:02:15;8.40;99.90
7331;DHT22;3706;49.198;7.064;2022-09-12T04:04:43;8.40;99.90
7331;DHT22;3706;49.198;7.064;2022-09-12T04:07:13;8.60;99.90
7331;DHT22;3706;49.198;7.064;2022-09-12T04:09:42;8.60;99.90
7331;DHT22;3706;49.198;7.064;2022-09-12T04:12:09;8.50;99.90
7331;DHT22;3706;49.198;7.064;2022-09-12T04:14:37;8.50;99.90
7331;DHT22;3706;49.198;7.064;2022-09-12T04:17:04;8.50;99.90
7331;DHT22;3706;49.198;7.064;2022-09-12T04:19:31;8.70;99.90
7331;DHT22;3706;49.198;7.064;2022-09-12T04:21:58;8.80;99.90
7331;DHT22;3706;49.198;7.064;2022-09-12T04:24:24;8.80;99.90
7331;DHT22;3706;49.198;7.064;2022-09-12T04:26:53;8.80;99.90
7331;DHT22;3706;49.198;7.064;2022-09-12T04:29:20;8.90;99.90
7331;DHT22;3706;49.198;7.064;2022-09-12T04:31:47;8.90;99.90
7331;DHT22;3706;49.198;7.064;2022-09-12T04:34:14;8.70;99.90
7331;DHT22;3706;49.198;7.064;2022-09-12T04:36:41;8.70;99.90
7331;DHT22;3706;49.198;7.064;2022-09-12T04:39:09;8.60;99.90
7331;DHT22;3706;49.198;7.064;2022-09-12T04:41:38;8.60;99.90
7331;DHT22;3706;49.198;7.064;2022-09-12T04:44:10;8.60;99.90
7331;DHT22;3706;49.198;7.064;2022-09-12T04:46:38;8.60;99.90
7331;DHT22;3706;49.198;7.064;2022-09-12T04:49:06;8.50;99.90
7331;DHT22;3706;49.198;7.064;2022-09-12T04:51:35;8.50;99.90
7331;DHT22;3706;49.198;7.064;2022-09-12T04:54:04;8.40;99.90
7331;DHT22;3706;49.198;7.064;2022-09-12T04:56:32;8.30;99.90
7331;DHT22;3706;49.198;7.064;2022-09-12T04:59:00;8.30;99.90
7331;DHT22;3706;49.198;7.064;2022-09-12T05:01:28;8.40;99.90
7331;DHT22;3706;49.198;7.064;2022-09-12T05:03:56;8.50;99.90
7331;DHT22;3706;49.198;7.064;2022-09-12T05:06:26;8.50;99.90
7331;DHT22;3706;49.198;7.064;2022-09-12T05:08:53;8.50;99.90
7331;DHT22;3706;49.198;7.064;2022-09-12T05:11:23;8.70;99.90
7331;DHT22;3706;49.198;7.064;2022-09-12T05:13:50;8.70;99.90
7331;DHT22;3706;49.198;7.064;2022-09-12T05:16:18;8.80;99.90
7331;DHT22;3706;49.198;7.064;2022-09-12T05:18:47;8.90;99.90
7331;DHT22;3706;49.198;7.064;2022-09-12T05:21:16;9.10;99.90
7331;DHT22;3706;49.198;7.064;2022-09-12T05:23:43;9.30;99.90
7331;DHT22;3706;49.198;7.064;2022-09-12T05:26:13;9.40;99.90
7331;DHT22;3706;49.198;7.064;2022-09-12T05:28:41;9.40;99.90
7331;DHT22;3706;49.198;7.064;2022-09-12T05:31:11;9.40;99.90
7331;DHT22;3706;49.198;7.064;2022-09-12T05:33:39;9.50;99.90
7331;DHT22;3706;49.198;7.064;2022-09-12T05:36:11;9.60;99.90
7331;DHT22;3706;49.198;7.064;2022-09-12T05:38:38;9.70;99.90
7331;DHT22;3706;49.198;7.064;2022-09-12T05:41:06;9.70;99.90
7331;DHT22;3706;49.198;7.064;2022-09-12T05:43:35;9.60;99.90
7331;DHT22;3706;49.198;7.064;2022-09-12T05:46:03;9.50;99.90
7331;DHT22;3706;49.198;7.064;2022-09-12T05:48:32;9.50;99.90
7331;DHT22;3706;49.198;7.064;2022-09-12T05:51:00;9.60;99.90
7331;DHT22;3706;49.198;7.064;2022-09-12T05:53:30;9.70;99.90
7331;DHT22;3706;49.198;7.064;2022-09-12T05:56:08;9.80;99.90
7331;DHT22;3706;49.198;7.064;2022-09-12T05:58:37;9.90;99.90
7331;DHT22;3706;49.198;7.064;2022-09-12T06:01:06;10.00;99.90
7331;DHT22;3706;49.198;7.064;2022-09-12T06:03:34;10.30;99.90
7331;DHT22;3706;49.198;7.064;2022-09-12T06:06:03;10.90;99.90
7331;DHT22;3706;49.198;7.064;2022-09-12T06:08:32;11.40;99.90
7331;DHT22;3706;49.198;7.064;2022-09-12T06:11:01;12.10;99.90
7331;DHT22;3706;49.198;7.064;2022-09-12T06:13:30;12.80;99.90
7331;DHT22;3706;49.198;7.064;2022-09-12T06:16:02;13.70;99.90
7331;DHT22;3706;49.198;7.064;2022-09-12T06:18:30;14.60;99.90
7331;DHT22;3706;49.198;7.064;2022-09-12T06:20:57;15.20;99.90
7331;DHT22;3706;49.198;7.064;2022-09-12T06:23:24;15.70;99.90
7331;DHT22;3706;49.198;7.064;2022-09-12T06:25:52;16.10;99.90
7331;DHT22;3706;49.198;7.064;2022-09-12T06:28:19;16.50;99.90
7331;DHT22;3706;49.198;7.064;2022-09-12T06:30:46;17.00;99.90
7331;DHT22;3706;49.198;7.064;2022-09-12T06:33:14;17.50;99.90
7331;DHT22;3706;49.198;7.064;2022-09-12T06:35:42;17.90;99.90
7331;DHT22;3706;49.198;7.064;2022-09-12T06:38:09;18.10;99.90
7331;DHT22;3706;49.198;7.064;2022-09-12T06:40:40;18.40;99.90
7331;DHT22;3706;49.198;7.064;2022-09-12T06:43:10;19.00;99.90
7331;DHT22;3706;49.198;7.064;2022-09-12T06:45:38;20.00;99.90
7331;DHT22;3706;49.198;7.064;2022-09-12T06:48:05;20.90;99.90
7331;DHT22;3706;49.198;7.064;2022-09-12T06:50:32;21.80;99.90
7331;DHT22;3706;49.198;7.064;2022-09-12T06:52:59;22.50;99.90
7331;DHT22;3706;49.198;7.064;2022-09-12T06:55:25;23.10;99.50
7331;DHT22;3706;49.198;7.064;2022-09-12T06:57:53;23.70;97.10
7331;DHT22;3706;49.198;7.064;2022-09-12T07:00:22;24.30;95.50
7331;DHT22;3706;49.198;7.064;2022-09-12T07:02:53;25.00;93.70
7331;DHT22;3706;49.198;7.064;2022-09-12T07:05:20;25.60;92.00
7331;DHT22;3706;49.198;7.064;2022-09-12T07:07:47;26.20;90.30
7331;DHT22;3706;49.198;7.064;2022-09-12T07:10:14;26.60;88.40
7331;DHT22;3706;49.198;7.064;2022-09-12T07:12:41;27.00;86.50
7331;DHT22;3706;49.198;7.064;2022-09-12T07:15:09;27.30;83.80
7331;DHT22;3706;49.198;7.064;2022-09-12T07:17:37;27.50;81.60
7331;DHT22;3706;49.198;7.064;2022-09-12T07:20:05;27.70;81.10
7331;DHT22;3706;49.198;7.064;2022-09-12T07:22:32;28.10;79.50
7331;DHT22;3706;49.198;7.064;2022-09-12T07:24:59;28.40;77.80
7331;DHT22;3706;49.198;7.064;2022-09-12T07:27:26;28.60;77.20
7331;DHT22;3706;49.198;7.064;2022-09-12T07:29:53;28.90;75.70
7331;DHT22;3706;49.198;7.064;2022-09-12T07:32:20;29.20;74.90
7331;DHT22;3706;49.198;7.064;2022-09-12T07:34:49;29.40;73.80
7331;DHT22;3706;49.198;7.064;2022-09-12T07:37:16;29.50;73.00
7331;DHT22;3706;49.198;7.064;2022-09-12T07:39:43;29.60;73.70
7331;DHT22;3706;49.198;7.064;2022-09-12T07:42:10;29.90;73.20
7331;DHT22;3706;49.198;7.064;2022-09-12T07:44:38;30.50;71.70
7331;DHT22;3706;49.198;7.064;2022-09-12T07:47:05;31.10;69.80
7331;DHT22;3706;49.198;7.064;2022-09-12T07:49:32;31.60;68.70
7331;DHT22;3706;49.198;7.064;2022-09-12T07:52:02;32.00;67.60
7331;DHT22;3706;49.198;7.064;2022-09-12T07:54:29;32.40;65.90
7331;DHT22;3706;49.198;7.064;2022-09-12T07:56:57;32.40;64.90
7331;DHT22;3706;49.198;7.064;2022-09-12T07:59:24;32.20;65.20
7331;DHT22;3706;49.198;7.064;2022-09-12T08:01:52;32.10;65.10
7331;DHT22;3706;49.198;7.064;2022-09-12T08:04:19;32.00;65.10
7331;DHT22;3706;49.198;7.064;2022-09-12T08:06:46;32.30;65.90
7331;DHT22;3706;49.198;7.064;2022-09-12T08:09:15;32.90;64.00
7331;DHT22;3706;49.198;7.064;2022-09-12T08:11:42;33.60;63.30
7331;DHT22;3706;49.198;7.064;2022-09-12T08:14:09;34.30;60.70
7331;DHT22;3706;49.198;7.064;2022-09-12T08:16:36;34.50;60.10
7331;DHT22;3706;49.198;7.064;2022-09-12T08:19:03;34.70;59.60
7331;DHT22;3706;49.198;7.064;2022-09-12T08:21:31;34.90;59.30
7331;DHT22;3706;49.198;7.064;2022-09-12T08:24:00;35.20;58.00
7331;DHT22;3706;49.198;7.064;2022-09-12T08:26:29;35.60;56.30
7331;DHT22;3706;49.198;7.064;2022-09-12T08:28:57;35.70;55.60
7331;DHT22;3706;49.198;7.064;2022-09-12T08:31:25;35.80;55.50
7331;DHT22;3706;49.198;7.064;2022-09-12T08:33:54;35.70;55.00
7331;DHT22;3706;49.198;7.064;2022-09-12T08:36:22;35.60;54.30
7331;DHT22;3706;49.198;7.064;2022-09-12T08:38:52;35.30;54.70
7331;DHT22;3706;49.198;7.064;2022-09-12T08:41:24;35.10;55.30
7331;DHT22;3706;49.198;7.064;2022-09-12T08:44:09;34.80;55.20
7331;DHT22;3706;49.198;7.064;2022-09-12T08:46:44;34.50;55.30
7331;DHT22;3706;49.198;7.064;2022-09-12T08:49:24;34.40;55.80
7331;DHT22;3706;49.198;7.064;2022-09-12T08:51:54;34.40;56.00
7331;DHT22;3706;49.198;7.064;2022-09-12T08:54:24;34.80;55.20
7331;DHT22;3706;49.198;7.064;2022-09-12T08:56:57;34.20;55.90
7331;DHT22;3706;49.198;7.064;2022-09-12T08:59:27;33.60;56.60
7331;DHT22;3706;49.198;7.064;2022-09-12T09:01:58;33.30;56.80
7331;DHT22;3706;49.198;7.064;2022-09-12T09:04:38;32.90;57.60
7331;DHT22;3706;49.198;7.064;2022-09-12T09:07:32;32.70;58.10
7331;DHT22;3706;49.198;7.064;2022-09-12T09:10:11;32.40;58.40
7331;DHT22;3706;49.198;7.064;2022-09-12T09:12:50;32.20;59.30
7331;DHT22;3706;49.198;7.064;2022-09-12T09:15:33;32.20;58.80
7331;DHT22;3706;49.198;7.064;2022-09-12T09:18:10;32.20;59.10
7331;DHT22;3706;49.198;7.064;2022-09-12T09:20:41;32.20;58.90
7331;DHT22;3706;49.198;7.064;2022-09-12T09:23:13;32.00;59.10
7331;DHT22;3706;49.198;7.064;2022-09-12T09:25:49;31.70;59.60
7331;DHT22;3706;49.198;7.064;2022-09-12T09:28:22;31.50;60.30
7331;DHT22;3706;49.198;7.064;2022-09-12T09:30:52;31.60;59.90
7331;DHT22;3706;49.198;7.064;2022-09-12T09:33:21;31.60;59.90
7331;DHT22;3706;49.198;7.064;2022-09-12T09:35:55;31.40;59.90
7331;DHT22;3706;49.198;7.064;2022-09-12T09:38:33;31.50;60.40
7331;DHT22;3706;49.198;7.064;2022-09-12T09:41:17;31.80;59.60
7331;DHT22;3706;49.198;7.064;2022-09-12T09:43:46;31.80;59.00
7331;DHT22;3706;49.198;7.064;2022-09-12T09:46:14;31.60;59.80
7331;DHT22;3706;49.198;7.064;2022-09-12T09:48:44;31.10;61.00
7331;DHT22;3706;49.198;7.064;2022-09-12T09:51:14;31.20;61.30
7331;DHT22;3706;49.198;7.064;2022-09-12T09:53:46;31.30;60.70
7331;DHT22;3706;49.198;7.064;2022-09-12T09:56:25;31.60;60.30
7331;DHT22;3706;49.198;7.064;2022-09-12T09:58:52;31.80;60.20
7331;DHT22;3706;49.198;7.064;2022-09-12T10:01:20;31.70;59.80
7331;DHT22;3706;49.198;7.064;2022-09-12T10:03:49;31.30;60.50
7331;DHT22;3706;49.198;7.064;2022-09-12T10:06:25;30.90;61.30
7331;DHT22;3706;49.198;7.064;2022-09-12T10:09:05;30.80;61.50
7331;DHT22;3706;49.198;7.064;2022-09-12T10:11:33;30.90;62.10
7331;DHT22;3706;49.198;7.064;2022-09-12T10:14:01;31.30;61.90
7331;DHT22;3706;49.198;7.064;2022-09-12T10:16:47;31.70;61.00
7331;DHT22;3706;49.198;7.064;2022-09-12T10:19:21;32.10;59.40
7331;DHT22;3706;49.198;7.064;2022-09-12T10:21:51;32.10;59.40
7331;DHT22;3706;49.198;7.064;2022-09-12T10:24:21;32.10;59.50
7331;DHT22;3706;49.198;7.064;2022-09-12T10:26:52;31.70;60.00
7331;DHT22;3706;49.198;7.064;2022-09-12T10:29:22;31.50;58.90
7331;DHT22;3706;49.198;7.064;2022-09-12T10:31:53;30.90;59.10
7331;DHT22;3706;49.198;7.064;2022-09-12T10:34:26;30.30;61.20
7331;DHT22;3706;49.198;7.064;2022-09-12T10:37:01;30.00;61.80
7331;DHT22;3706;49.198;7.064;2022-09-12T10:39:29;29.70;62.70
7331;DHT22;3706;49.198;7.064;2022-09-12T10:41:57;29.80;63.20
7331;DHT22;3706;49.198;7.064;2022-09-12T10:44:26;29.90;62.90
7331;DHT22;3706;49.198;7.064;2022-09-12T10:46:56;30.20;61.70
7331;DHT22;3706;49.198;7.064;2022-09-12T10:49:26;30.50;60.30
7331;DHT22;3706;49.198;7.064;2022-09-12T10:51:55;30.70;60.40
7331;DHT22;3706;49.198;7.064;2022-09-12T10:54:26;30.80;60.70
7331;DHT22;3706;49.198;7.064;2022-09-12T10:57:05;30.90;57.20
7331;DHT22;3706;49.198;7.064;2022-09-12T10:59:47;30.70;58.50
7331;DHT22;3706;49.198;7.064;2022-09-12T11:02:26;30.40;57.80
7331;DHT22;3706;49.198;7.064;2022-09-12T11:05:01;30.40;59.80
7331;DHT22;3706;49.198;7.064;2022-09-12T11:07:39;30.40;60.30
7331;DHT22;3706;49.198;7.064;2022-09-12T11:10:23;30.70;59.40
7331;DHT22;3706;49.198;7.064;2022-09-12T11:13:01;30.70;59.10
7331;DHT22;3706;49.198;7.064;2022-09-12T11:15:41;30.40;59.40
7331;DHT22;3706;49.198;7.064;2022-09-12T11:18:21;30.40;59.30
7331;DHT22;3706;49.198;7.064;2022-09-12T11:21:00;30.40;58.80
7331;DHT22;3706;49.198;7.064;2022-09-12T11:24:14;30.60;58.60
7331;DHT22;3706;49.198;7.064;2022-09-12T11:26:56;31.30;57.20
7331;DHT22;3706;49.198;7.064;2022-09-12T11:29:38;31.50;56.50
7331;DHT22;3706;49.198;7.064;2022-09-12T11:32:15;31.70;56.60
7331;DHT22;3706;49.198;7.064;2022-09-12T11:34:53;31.90;56.50
7331;DHT22;3706;49.198;7.064;2022-09-12T11:37:35;32.40;56.00
7331;DHT22;3706;49.198;7.064;2022-09-12T11:40:24;32.60;54.20
7331;DHT22;3706;49.198;7.064;2022-09-12T11:42:56;33.00;54.50
7331;DHT22;3706;49.198;7.064;2022-09-12T11:45:28;33.30;53.60
7331;DHT22;3706;49.198;7.064;2022-09-12T11:48:03;33.80;52.30
7331;DHT22;3706;49.198;7.064;2022-09-12T11:50:33;34.30;52.00
7331;DHT22;3706;49.198;7.064;2022-09-12T11:53:04;34.50;49.90
7331;DHT22;3706;49.198;7.064;2022-09-12T11:55:46;33.80;49.80
7331;DHT22;3706;49.198;7.064;2022-09-12T11:58:14;33.10;51.50
7331;DHT22;3706;49.198;7.064;2022-09-12T12:00:45;32.80;51.40
7331;DHT22;3706;49.198;7.064;2022-09-12T12:03:17;32.50;51.00
7331;DHT22;3706;49.198;7.064;2022-09-12T12:05:51;32.50;51.70
7331;DHT22;3706;49.198;7.064;2022-09-12T12:08:20;32.70;52.10
7331;DHT22;3706;49.198;7.064;2022-09-12T12:10:50;32.90;52.00
7331;DHT22;3706;49.198;7.064;2022-09-12T12:13:21;32.90;52.60
7331;DHT22;3706;49.198;7.064;2022-09-12T12:15:53;32.90;52.90
7331;DHT22;3706;49.198;7.064;2022-09-12T12:18:23;32.90;52.40
7331;DHT22;3706;49.198;7.064;2022-09-12T12:20:53;32.70;52.90
7331;DHT22;3706;49.198;7.064;2022-09-12T12:23:26;32.40;52.70
7331;DHT22;3706;49.198;7.064;2022-09-12T12:25:56;32.40;52.90
7331;DHT22;3706;49.198;7.064;2022-09-12T12:28:55;32.20;52.40
7331;DHT22;3706;49.198;7.064;2022-09-12T12:31:23;31.90;52.40
7331;DHT22;3706;49.198;7.064;2022-09-12T12:33:52;31.70;52.60
7331;DHT22;3706;49.198;7.064;2022-09-12T12:36:46;31.20;54.10
7331;DHT22;3706;49.198;7.064;2022-09-12T12:48:45;31.10;55.10
7331;DHT22;3706;49.198;7.064;2022-09-12T12:54:31;31.60;54.20
7331;DHT22;3706;49.198;7.064;2022-09-12T12:57:12;31.60;53.60
7331;DHT22;3706;49.198;7.064;2022-09-12T12:59:49;31.30;53.30
7331;DHT22;3706;49.198;7.064;2022-09-12T13:02:22;30.90;53.10
7331;DHT22;3706;49.198;7.064;2022-09-12T13:04:51;30.20;53.90
7331;DHT22;3706;49.198;7.064;2022-09-12T13:07:27;29.90;54.40
7331;DHT22;3706;49.198;7.064;2022-09-12T13:09:57;29.80;56.10
7331;DHT22;3706;49.198;7.064;2022-09-12T13:12:27;29.80;55.90
7331;DHT22;3706;49.198;7.064;2022-09-12T13:14:55;30.00;54.90
7331;DHT22;3706;49.198;7.064;2022-09-12T13:17:44;30.20;53.40
7331;DHT22;3706;49.198;7.064;2022-09-12T13:20:17;30.00;53.70
7331;DHT22;3706;49.198;7.064;2022-09-12T13:22:48;29.60;54.20
7331;DHT22;3706;49.198;7.064;2022-09-12T13:25:26;29.30;55.10
7331;DHT22;3706;49.198;7.064;2022-09-12T13:28:02;29.20;55.60
7331;DHT22;3706;49.198;7.064;2022-09-12T13:30:31;29.30;55.20
7331;DHT22;3706;49.198;7.064;2022-09-12T13:33:15;29.40;55.30
7331;DHT22;3706;49.198;7.064;2022-09-12T13:38:54;29.50;52.50
7331;DHT22;3706;49.198;7.064;2022-09-12T13:41:38;29.30;53.80
7331;DHT22;3706;49.198;7.064;2022-09-12T13:44:09;29.40;54.40
7331;DHT22;3706;49.198;7.064;2022-09-12T13:46:38;29.30;54.30
7331;DHT22;3706;49.198;7.064;2022-09-12T13:49:11;29.20;54.30
7331;DHT22;3706;49.198;7.064;2022-09-12T13:51:42;29.10;55.00
7331;DHT22;3706;49.198;7.064;2022-09-12T13:57:42;28.80;55.80
7331;DHT22;3706;49.198;7.064;2022-09-12T14:00:15;28.60;54.70
7331;DHT22;3706;49.198;7.064;2022-09-12T14:02:45;28.60;55.00
7331;DHT22;3706;49.198;7.064;2022-09-12T14:05:18;28.50;53.00
7331;DHT22;3706;49.198;7.064;2022-09-12T14:07:53;28.40;52.70
7331;DHT22;3706;49.198;7.064;2022-09-12T14:10:25;28.30;52.20
7331;DHT22;3706;49.198;7.064;2022-09-12T14:12:54;28.10;55.50
7331;DHT22;3706;49.198;7.064;2022-09-12T14:15:25;27.90;56.10
7331;DHT22;3706;49.198;7.064;2022-09-12T14:17:54;27.70;54.20
7331;DHT22;3706;49.198;7.064;2022-09-12T14:20:26;27.60;56.10
7331;DHT22;3706;49.198;7.064;2022-09-12T14:22:58;27.60;56.20
7331;DHT22;3706;49.198;7.064;2022-09-12T14:25:27;27.60;55.00
7331;DHT22;3706;49.198;7.064;2022-09-12T14:27:57;27.60;55.40
7331;DHT22;3706;49.198;7.064;2022-09-12T14:30:26;27.60;55.70
7331;DHT22;3706;49.198;7.064;2022-09-12T14:33:15;27.60;56.90
7331;DHT22;3706;49.198;7.064;2022-09-12T14:35:45;27.60;56.50
7331;DHT22;3706;49.198;7.064;2022-09-12T14:38:20;27.60;54.80
7331;DHT22;3706;49.198;7.064;2022-09-12T14:40:57;27.50;55.30
7331;DHT22;3706;49.198;7.064;2022-09-12T14:43:28;27.40;51.80
7331;DHT22;3706;49.198;7.064;2022-09-12T14:45:57;27.20;52.00
7331;DHT22;3706;49.198;7.064;2022-09-12T14:48:29;27.10;54.30
7331;DHT22;3706;49.198;7.064;2022-09-12T14:50:58;27.00;56.10
7331;DHT22;3706;49.198;7.064;2022-09-12T14:53:32;26.90;55.70
7331;DHT22;3706;49.198;7.064;2022-09-12T14:56:06;26.90;56.80
7331;DHT22;3706;49.198;7.064;2022-09-12T14:58:40;26.80;58.20
7331;DHT22;3706;49.198;7.064;2022-09-12T15:01:35;26.70;58.60
7331;DHT22;3706;49.198;7.064;2022-09-12T15:04:01;26.60;59.40
7331;DHT22;3706;49.198;7.064;2022-09-12T15:06:31;26.40;58.70
7331;DHT22;3706;49.198;7.064;2022-09-12T15:09:04;26.30;59.30
7331;DHT22;3706;49.198;7.064;2022-09-12T15:11:32;26.20;61.20
7331;DHT22;3706;49.198;7.064;2022-09-12T15:14:14;26.10;60.60
7331;DHT22;3706;49.198;7.064;2022-09-12T15:16:42;25.90;60.00
7331;DHT22;3706;49.198;7.064;2022-09-12T15:19:08;25.80;61.40
7331;DHT22;3706;49.198;7.064;2022-09-12T15:21:36;25.70;61.80
7331;DHT22;3706;49.198;7.064;2022-09-12T15:31:30;25.10;62.10
7331;DHT22;3706;49.198;7.064;2022-09-12T15:33:59;24.90;62.80
7331;DHT22;3706;49.198;7.064;2022-09-12T15:36:27;24.70;63.40
7331;DHT22;3706;49.198;7.064;2022-09-12T15:38:55;24.50;63.60
7331;DHT22;3706;49.198;7.064;2022-09-12T15:41:27;24.30;61.30
7331;DHT22;3706;49.198;7.064;2022-09-12T15:43:55;24.20;63.00
7331;DHT22;3706;49.198;7.064;2022-09-12T15:46:22;24.10;61.50
7331;DHT22;3706;49.198;7.064;2022-09-12T15:48:51;24.10;60.70
7331;DHT22;3706;49.198;7.064;2022-09-12T15:51:19;23.90;61.90
7331;DHT22;3706;49.198;7.064;2022-09-12T15:53:47;23.80;60.70
7331;DHT22;3706;49.198;7.064;2022-09-12T15:56:15;23.80;62.20
7331;DHT22;3706;49.198;7.064;2022-09-12T15:58:43;23.70;63.00
7331;DHT22;3706;49.198;7.064;2022-09-12T16:01:11;23.50;64.40
7331;DHT22;3706;49.198;7.064;2022-09-12T16:03:38;23.30;64.80
7331;DHT22;3706;49.198;7.064;2022-09-12T16:06:07;23.10;66.00
7331;DHT22;3706;49.198;7.064;2022-09-12T16:08:35;23.00;66.10
7331;DHT22;3706;49.198;7.064;2022-09-12T16:11:04;22.80;66.80
7331;DHT22;3706;49.198;7.064;2022-09-12T16:13:33;22.70;67.60
7331;DHT22;3706;49.198;7.064;2022-09-12T16:16:00;22.60;67.80
7331;DHT22;3706;49.198;7.064;2022-09-12T16:18:28;22.40;68.50
7331;DHT22;3706;49.198;7.064;2022-09-12T16:20:55;22.30;68.80
7331;DHT22;3706;49.198;7.064;2022-09-12T16:23:24;22.20;69.20
7331;DHT22;3706;49.198;7.064;2022-09-12T16:25:57;22.10;70.20
7331;DHT22;3706;49.198;7.064;2022-09-12T16:28:25;21.90;71.10
7331;DHT22;3706;49.198;7.064;2022-09-12T16:30:55;21.80;71.50
7331;DHT22;3706;49.198;7.064;2022-09-12T16:33:26;21.70;71.90
7331;DHT22;3706;49.198;7.064;2022-09-12T16:36:00;21.50;72.50
7331;DHT22;3706;49.198;7.064;2022-09-12T16:38:29;21.40;73.30
7331;DHT22;3706;49.198;7.064;2022-09-12T16:40:59;21.40;73.30
7331;DHT22;3706;49.198;7.064;2022-09-12T16:43:26;21.30;73.70
7331;DHT22;3706;49.198;7.064;2022-09-12T16:46:00;21.20;74.20
7331;DHT22;3706;49.198;7.064;2022-09-12T16:48:27;21.10;74.60
7331;DHT22;3706;49.198;7.064;2022-09-12T16:50:55;21.00;75.20
7331;DHT22;3706;49.198;7.064;2022-09-12T16:53:22;20.80;76.40
7331;DHT22;3706;49.198;7.064;2022-09-12T16:55:51;20.80;77.50
7331;DHT22;3706;49.198;7.064;2022-09-12T16:58:18;20.60;78.00
7331;DHT22;3706;49.198;7.064;2022-09-12T17:00:44;20.50;79.50
7331;DHT22;3706;49.198;7.064;2022-09-12T17:03:11;20.30;80.20
7331;DHT22;3706;49.198;7.064;2022-09-12T17:05:40;20.20;81.40
7331;DHT22;3706;49.198;7.064;2022-09-12T17:08:07;20.10;81.40